Time,TemperatureF,DewpointF,PressureIn,WindDirection,WindDirectionDegrees,WindSpeedMPH,WindSpeedGustMPH,Humidity,HourlyPrecipIn,Conditions,Clouds,dailyrainin,SolarRadiationWatts/m^2,SoftwareType,DateUTC
2013-01-23 01:00:00,24.0,19.0,30.10,West,281,4.0,-999.0,80,-99.99,,,-99.99,0.010000,,2013-01-23 08:00:00,
2013-01-23 01:53:00,24.0,19.0,30.10,West,281,4.0,-999.0,80,-99.99,,,-99.99,0.010000,,2013-01-23 08:53:00,
2013-01-23 02:00:00,23.0,18.0,30.10,WSW,254,5.0,-999.0,81,-99.99,,,-99.99,0.000000,,2013-01-23 09:00:00,
2013-01-23 02:53:00,23.0,18.0,30.10,WSW,254,5.0,-999.0,81,-99.99,,,-99.99,0.000000,,2013-01-23 09:53:00,
2013-01-23 03:00:00,22.0,18.0,30.10,SSW,211,2.0,-999.0,86,-99.99,,,-99.99,0.010000,,2013-01-23 10:00:00,
2013-01-23 03:53:00,22.0,18.0,30.10,SSW,211,2.0,-999.0,86,-99.99,,,-99.99,0.010000,,2013-01-23 10:53:00,
2013-01-23 04:00:00,19.0,16.0,30.10,South,174,1.0,-999.0,89,-99.99,,,-99.99,0.000000,,2013-01-23 11:00:00,
2013-01-23 04:53:00,19.0,16.0,30.10,South,174,1.0,-999.0,89,-99.99,,,-99.99,0.000000,,2013-01-23 11:53:00,
2013-01-23 05:00:00,20.0,17.0,30.10,North,11,1.0,-999.0,91,-99.99,,,-99.99,0.000000,,2013-01-23 12:00:00,
2013-01-23 05:53:00,20.0,17.0,30.10,North,11,1.0,-999.0,91,-99.99,,,-99.99,0.000000,,2013-01-23 12:53:00,
2013-01-23 06:00:00,19.0,17.0,30.12,SSW,199,2.0,-999.0,92,-99.99,,,-99.99,0.000000,,2013-01-23 13:00:00,
2013-01-23 06:53:00,19.0,17.0,30.12,SSW,199,2.0,-999.0,92,-99.99,,,-99.99,0.000000,,2013-01-23 13:53:00,
2013-01-23 07:00:00,18.0,17.0,30.12,West,273,3.0,-999.0,94,-99.99,,,-99.99,0.000000,,2013-01-23 14:00:00,
2013-01-23 07:53:00,18.0,17.0,30.12,West,273,3.0,-999.0,94,-99.99,,,-99.99,0.000000,,2013-01-23 14:53:00,
2013-01-23 08:00:00,19.0,17.0,30.11,SSE,151,3.0,-999.0,94,-99.99,,,-99.99,0.360000,,2013-01-23 15:00:00,
2013-01-23 08:53:00,19.0,17.0,30.11,SSE,151,3.0,-999.0,94,-99.99,,,-99.99,0.360000,,2013-01-23 15:53:00,
2013-01-23 09:00:00,18.0,18.0,30.10,ESE,103,2.0,-999.0,98,-99.99,,,-99.99,18.660000,,2013-01-23 16:00:00,
2013-01-23 09:53:00,18.0,18.0,30.10,ESE,103,2.0,-999.0,98,-99.99,,,-99.99,18.660000,,2013-01-23 16:53:00,
2013-01-23 10:00:00,24.0,19.0,30.10,ESE,109,6.0,-999.0,78,-99.99,,,-99.99,82.099998,,2013-01-23 17:00:00,
2013-01-23 10:53:00,24.0,19.0,30.10,ESE,109,6.0,-999.0,78,-99.99,,,-99.99,82.099998,,2013-01-23 17:53:00,
2013-01-23 11:00:00,25.0,19.0,30.10,SE,132,16.0,-999.0,79,-99.99,,,-99.99,157.000000,,2013-01-23 18:00:00,
2013-01-23 11:53:00,25.0,19.0,30.10,SE,132,16.0,-999.0,79,-99.99,,,-99.99,157.000000,,2013-01-23 18:53:00,
2013-01-23 12:00:00,26.0,20.0,30.07,ESE,123,14.0,-999.0,76,-99.99,,,-99.99,196.699997,,2013-01-23 19:00:00,
2013-01-23 12:53:00,26.0,20.0,30.07,ESE,123,14.0,-999.0,76,-99.99,,,-99.99,196.699997,,2013-01-23 19:53:00,
2013-01-23 13:00:00,29.0,21.0,30.05,SE,125,14.0,-999.0,72,-99.99,,,-99.99,193.199997,,2013-01-23 20:00:00,
2013-01-23 13:53:00,29.0,21.0,30.05,SE,125,14.0,-999.0,72,-99.99,,,-99.99,193.199997,,2013-01-23 20:53:00,
2013-01-23 14:00:00,31.0,19.0,30.03,SE,138,13.0,-999.0,61,-99.99,,,-99.99,223.199997,,2013-01-23 21:00:00,
2013-01-23 14:53:00,31.0,19.0,30.03,SE,138,13.0,-999.0,61,-99.99,,,-99.99,223.199997,,2013-01-23 21:53:00,